Time;durP1;ratioP1;P1;durP2;ratioP2;P2;SDS_P1;SDS_P2;PMS_P1;PMS_P2;Temp;Humidity;BMP_temperature;BMP_pressure;BME280_temperature;BME280_humidity;BME280_pressure;Samples;Min_cycle;Max_cycle;Signal;HPM_P1;HPM_P2
2022/08/19 00:00:31;;;;;;;2.58;2.30;;;24.70;79.40;;;;;;5031233;28;45294;-69
2022/08/19 00:02:58;;;;;;;2.08;1.83;;;24.70;79.40;;;;;;5042642;27;47504;-70
2022/08/19 00:05:26;;;;;;;2.70;2.20;;;24.60;79.30;;;;;;5041946;28;45559;-70
2022/08/19 00:07:53;;;;;;;2.05;1.85;;;24.60;79.20;;;;;;5041102;28;45442;-69
2022/08/19 00:10:21;;;;;;;2.88;2.20;;;24.60;79.30;;;;;;5038914;28;45515;-70
2022/08/19 00:12:48;;;;;;;2.25;2.00;;;24.60;79.30;;;;;;5047434;28;46685;-70
2022/08/19 00:15:18;;;;;;;2.60;2.10;;;24.60;79.40;;;;;;5038894;28;45297;-70
2022/08/19 00:17:45;;;;;;;3.65;2.50;;;24.60;79.30;;;;;;5039208;28;45308;-70
2022/08/19 00:20:16;;;;;;;2.35;2.10;;;24.60;79.30;;;;;;5038808;28;45294;-70
2022/08/19 00:22:45;;;;;;;2.38;2.15;;;24.60;79.20;;;;;;5032285;28;47271;-70
2022/08/19 00:25:12;;;;;;;2.60;2.40;;;24.60;79.20;;;;;;5047047;28;45535;-70
2022/08/19 00:27:39;;;;;;;2.63;2.42;;;24.60;79.20;;;;;;5049348;28;45309;-70
2022/08/19 00:30:09;;;;;;;2.30;2.10;;;24.60;79.20;;;;;;5049979;28;45371;-70
2022/08/19 00:32:36;;;;;;;2.53;2.33;;;24.60;79.10;;;;;;5038576;28;48610;-70
2022/08/19 00:35:03;;;;;;;2.80;2.20;;;24.50;79.00;;;;;;5047291;28;46109;-70
2022/08/19 00:37:30;;;;;;;2.50;2.08;;;24.60;79.10;;;;;;5034863;28;45414;-69
2022/08/19 00:39:58;;;;;;;3.10;2.35;;;24.60;79.20;;;;;;5037318;27;45586;-70
2022/08/19 00:42:28;;;;;;;2.40;2.00;;;24.60;79.30;;;;;;5052511;27;48854;-70
2022/08/19 00:44:54;;;;;;;2.10;1.90;;;24.60;79.20;;;;;;5063155;27;45422;-71
2022/08/19 00:47:21;;;;;;;2.20;2.00;;;24.60;79.30;;;;;;5046974;28;45335;-70
2022/08/19 00:49:51;;;;;;;2.58;2.20;;;24.60;79.30;;;;;;5034978;28;45548;-70
2022/08/19 00:52:21;;;;;;;2.50;2.30;;;24.60;79.20;;;;;;5027980;27;46360;-70
2022/08/19 00:54:48;;;;;;;2.42;2.22;;;24.60;79.20;;;;;;5034595;27;46150;-70
2022/08/19 00:57:19;;;;;;;2.40;2.20;;;24.60;79.20;;;;;;5044943;27;45432;-70
2022/08/19 00:59:52;;;;;;;2.45;2.25;;;24.60;79.20;;;;;;5086808;27;45453;-69
2022/08/19 01:02:19;;;;;;;2.30;2.10;;;24.60;79.20;;;;;;5032711;27;46569;-70
2022/08/19 01:04:46;;;;;;;2.97;2.53;;;24.60;79.20;;;;;;5028876;28;45222;-69
2022/08/19 01:07:13;;;;;;;2.50;2.20;;;24.60;79.20;;;;;;5029487;28;45420;-70
2022/08/19 01:09:40;;;;;;;2.85;2.50;;;24.60;79.20;;;;;;5025690;28;45343;-70
2022/08/19 01:12:08;;;;;;;3.15;2.33;;;24.60;79.10;;;;;;5069436;27;46588;-70
2022/08/19 01:14:39;;;;;;;2.20;2.00;;;24.60;79.10;;;;;;5036350;28;45441;-70
2022/08/19 01:17:08;;;;;;;2.97;2.30;;;24.60;79.20;;;;;;5072507;27;45511;-70
2022/08/19 01:19:39;;;;;;;2.83;2.60;;;24.50;79.00;;;;;;5037055;28;45433;-70
2022/08/19 01:22:13;;;;;;;3.08;2.63;;;24.60;79.10;;;;;;5027346;28;48743;-70
2022/08/19 01:24:42;;;;;;;4.55;2.70;;;24.60;79.10;;;;;;5033148;28;45360;-70
2022/08/19 01:27:09;;;;;;;2.60;2.40;;;24.50;79.00;;;;;;5074790;27;45362;-69
2022/08/19 01:29:39;;;;;;;2.80;2.50;;;24.50;79.00;;;;;;5028612;27;45286;-72
2022/08/19 01:32:07;;;;;;;2.95;2.67;;;24.50;79.00;;;;;;5043614;27;46305;-69
2022/08/19 01:34:34;;;;;;;3.22;2.80;;;24.50;79.10;;;;;;5041283;27;45449;-69
2022/08/19 01:37:07;;;;;;;3.72;2.75;;;24.50;79.00;;;;;;5053956;28;45341;-70
2022/08/19 01:39:34;;;;;;;2.85;2.55;;;24.50;79.00;;;;;;5037498;27;45402;-69
2022/08/19 01:42:04;;;;;;;2.95;2.65;;;24.50;78.90;;;;;;5036083;28;45562;-70
2022/08/19 01:44:30;;;;;;;7.00;2.90;;;24.50;80.00;;;;;;5051597;27;45374;-69
2022/08/19 01:46:58;;;;;;;2.83;2.20;;;24.50;78.90;;;;;;5076235;27;45388;-69
2022/08/19 01:49:26;;;;;;;4.18;3.10;;;24.50;78.90;;;;;;5035015;27;45380;-70
2022/08/19 01:51:55;;;;;;;3.33;2.47;;;24.50;79.00;;;;;;5065770;27;48958;-70
2022/08/19 01:54:23;;;;;;;3.72;2.95;;;24.50;79.10;;;;;;5038701;27;46003;-70
2022/08/19 01:56:51;;;;;;;3.13;2.53;;;24.50;79.00;;;;;;5039033;28;45446;-69
2022/08/19 01:59:22;;;;;;;3.17;2.88;;;24.50;79.00;;;;;;5046774;27;45687;-69
2022/08/19 02:01:49;;;;;;;3.03;2.75;;;24.50;79.00;;;;;;5089211;27;46665;-70
2022/08/19 02:04:16;;;;;;;3.60;2.92;;;24.50;79.00;;;;;;5039653;27;45496;-70
2022/08/19 02:06:42;;;;;;;3.17;2.88;;;24.50;79.00;;;;;;5040912;28;45383;-70
2022/08/19 02:09:10;;;;;;;3.45;2.85;;;24.50;78.90;;;;;;5041433;28;45641;-69
2022/08/19 02:11:38;;;;;;;2.97;2.67;;;24.50;79.00;;;;;;5040181;28;48069;-70
2022/08/19 02:14:07;;;;;;;3.50;2.70;;;24.50;79.00;;;;;;5041149;28;45239;-70
2022/08/19 02:16:38;;;;;;;3.15;2.85;;;24.50;78.90;;;;;;5040726;28;45294;-69
2022/08/19 02:19:05;;;;;;;3.97;2.60;;;24.50;78.80;;;;;;5036796;28;45333;-69
2022/08/19 02:21:32;;;;;;;3.88;3.20;;;24.50;78.90;;;;;;5039874;28;47215;-69
2022/08/19 02:23:59;;;;;;;5.13;3.33;;;24.50;78.90;;;;;;5047347;27;45341;-69
2022/08/19 02:26:27;;;;;;;4.03;3.13;;;24.50;78.90;;;;;;5026582;28;45322;-70
2022/08/19 02:28:55;;;;;;;3.50;3.15;;;24.50;78.80;;;;;;5031606;28;45375;-69
2022/08/19 02:31:23;;;;;;;4.20;3.58;;;24.50;78.80;;;;;;5043272;27;46528;-70
2022/08/19 02:33:51;;;;;;;4.13;3.28;;;24.40;78.70;;;;;;5070383;27;45395;-69
2022/08/19 02:36:19;;;;;;;4.22;3.53;;;24.50;78.80;;;;;;5033058;28;45345;-69
2022/08/19 02:38:45;;;;;;;5.88;4.03;;;24.50;78.70;;;;;;5030569;27;45495;-70
2022/08/19 02:41:16;;;;;;;5.05;3.85;;;24.50;78.70;;;;;;5029252;28;48217;-69
2022/08/19 02:43:43;;;;;;;4.28;3.47;;;24.40;78.50;;;;;;5031271;27;45402;-69
2022/08/19 02:46:14;;;;;;;5.45;4.25;;;24.40;78.50;;;;;;5036568;27;45496;-70
2022/08/19 02:48:41;;;;;;;5.85;4.00;;;24.40;78.40;;;;;;5070423;27;45517;-69
2022/08/19 02:51:09;;;;;;;4.20;3.50;;;24.40;78.50;;;;;;5030365;28;47551;-70
2022/08/19 02:53:37;;;;;;;5.00;3.90;;;24.40;78.30;;;;;;5031266;27;45574;-69
2022/08/19 02:56:07;;;;;;;6.13;3.90;;;24.40;78.30;;;;;;5090462;27;45382;-69
2022/08/19 02:58:34;;;;;;;3.97;3.38;;;24.40;78.20;;;;;;5084860;27;45456;-70
2022/08/19 03:01:01;;;;;;;4.32;3.75;;;24.40;78.30;;;;;;5072650;27;48630;-69
2022/08/19 03:03:29;;;;;;;5.53;3.80;;;24.40;78.30;;;;;;5047379;27;45293;-69
2022/08/19 03:06:14;;;;;;;4.72;4.00;;;24.40;78.20;;;;;;5054728;27;45536;-69
2022/08/19 03:08:42;;;;;;;4.97;4.47;;;24.40;78.30;;;;;;5030862;28;45449;-70
2022/08/19 03:11:14;;;;;;;6.07;4.93;;;24.40;78.20;;;;;;5058251;27;46357;-69
2022/08/19 03:13:42;;;;;;;5.97;4.82;;;24.40;78.10;;;;;;5026540;28;45437;-70
2022/08/19 03:16:10;;;;;;;6.72;5.22;;;24.40;78.10;;;;;;5037584;28;45303;-69
2022/08/19 03:18:37;;;;;;;6.03;5.10;;;24.40;78.10;;;;;;5039279;28;45473;-69
2022/08/19 03:21:04;;;;;;;5.97;5.13;;;24.40;78.10;;;;;;5039658;27;45431;-69
2022/08/19 03:23:33;;;;;;;5.93;5.20;;;24.40;78.10;;;;;;5070968;27;45515;-69
2022/08/19 03:26:00;;;;;;;5.55;4.97;;;24.40;78.10;;;;;;5031470;28;45436;-69
2022/08/19 03:28:28;;;;;;;5.85;5.20;;;24.40;78.10;;;;;;5025121;28;45455;-69
2022/08/19 03:31:00;;;;;;;5.80;5.05;;;24.40;78.10;;;;;;5026745;27;46431;-70
2022/08/19 03:33:29;;;;;;;7.47;6.03;;;24.40;78.20;;;;;;5030020;28;45612;-69
2022/08/19 03:36:10;;;;;;;6.07;5.25;;;24.40;78.10;;;;;;5045935;28;45257;-69
2022/08/19 03:38:40;;;;;;;6.22;5.55;;;24.40;78.00;;;;;;5046693;27;45490;-69
2022/08/19 03:41:08;;;;;;;5.93;5.32;;;24.40;78.10;;;;;;5039913;28;45471;-69
2022/08/19 03:43:37;;;;;;;6.03;5.43;;;24.40;78.10;;;;;;5042663;27;45479;-70
2022/08/19 03:46:07;;;;;;;6.70;5.70;;;24.40;78.10;;;;;;5048772;27;45414;-70
2022/08/19 03:48:34;;;;;;;6.65;5.55;;;24.40;78.10;;;;;;5103469;27;45536;-71
2022/08/19 03:51:01;;;;;;;7.05;5.72;;;24.40;78.10;;;;;;5066095;27;46652;-69
2022/08/19 03:53:30;;;;;;;6.30;5.70;;;24.30;78.10;;;;;;5047346;27;45380;-70
2022/08/19 03:55:59;;;;;;;5.93;5.25;;;24.40;78.20;;;;;;5051309;27;45588;-71
2022/08/19 03:58:27;;;;;;;6.50;5.88;;;24.40;78.20;;;;;;5029828;28;45557;-70
2022/08/19 04:00:54;;;;;;;6.75;5.70;;;24.30;78.10;;;;;;5050909;27;46568;-70
2022/08/19 04:03:21;;;;;;;6.53;5.85;;;24.30;78.10;;;;;;5082179;27;45495;-70
2022/08/19 04:05:48;;;;;;;5.80;5.22;;;24.30;78.10;;;;;;5038368;27;45691;-71
2022/08/19 04:08:20;;;;;;;7.28;6.05;;;24.30;78.10;;;;;;5045662;28;45244;-70
2022/08/19 04:10:47;;;;;;;6.22;5.63;;;24.40;78.10;;;;;;5028945;28;46589;-70
2022/08/19 04:13:16;;;;;;;8.07;6.10;;;24.30;78.20;;;;;;5018690;28;45322;-70
2022/08/19 04:15:46;;;;;;;6.38;5.57;;;24.30;78.10;;;;;;5018297;28;45325;-71
2022/08/19 04:18:13;;;;;;;7.07;6.30;;;24.30;78.20;;;;;;5036613;28;45327;-70
2022/08/19 04:20:42;;;;;;;6.57;5.88;;;24.30;78.20;;;;;;5037894;28;46634;-70
2022/08/19 04:23:09;;;;;;;7.40;6.00;;;24.40;78.30;;;;;;5032319;28;45368;-69
2022/08/19 04:25:38;;;;;;;6.93;6.20;;;24.40;78.30;;;;;;5033549;28;45402;-71
2022/08/19 04:28:05;;;;;;;6.95;6.10;;;24.30;78.30;;;;;;5042204;28;45316;-70
2022/08/19 04:30:38;;;;;;;6.75;6.03;;;24.40;78.30;;;;;;5046773;28;47782;-69
2022/08/19 04:33:05;;;;;;;7.15;5.82;;;24.30;78.20;;;;;;5056000;28;45373;-70
2022/08/19 04:35:37;;;;;;;6.43;5.68;;;24.40;78.30;;;;;;5036728;28;45462;-71
2022/08/19 04:38:03;;;;;;;6.93;6.03;;;24.30;78.30;;;;;;5076387;27;45496;-70
2022/08/19 04:43:15;;;;;;;6.93;5.95;;;24.30;78.20;;;;;;5026341;28;45501;-69
2022/08/19 04:45:44;;;;;;;6.72;5.90;;;24.30;78.30;;;;;;5037404;27;45504;-70
2022/08/19 04:48:10;;;;;;;6.57;5.82;;;24.40;78.40;;;;;;5078549;27;45549;-70
2022/08/19 04:50:40;;;;;;;7.55;6.40;;;24.40;78.40;;;;;;5085364;27;46906;-70
2022/08/19 04:53:07;;;;;;;7.97;6.30;;;24.40;78.40;;;;;;5040391;27;45396;-70
2022/08/19 04:55:35;;;;;;;6.97;5.97;;;24.30;78.30;;;;;;5027431;27;45298;-69
2022/08/19 04:58:02;;;;;;;6.72;6.03;;;24.40;78.40;;;;;;5037732;27;45600;-71
2022/08/19 05:00:29;;;;;;;6.65;5.93;;;24.30;78.30;;;;;;5039609;28;46660;-70
2022/08/19 05:02:57;;;;;;;7.85;6.60;;;24.30;78.40;;;;;;5063909;27;45414;-70
2022/08/19 05:05:24;;;;;;;7.03;5.93;;;24.30;78.40;;;;;;5045999;27;45384;-69
2022/08/19 05:07:50;;;;;;;7.72;6.00;;;24.40;78.50;;;;;;5045487;27;45440;-70
2022/08/19 05:10:18;;;;;;;7.03;6.30;;;24.30;78.50;;;;;;5047644;28;45373;-69
2022/08/19 05:12:45;;;;;;;8.35;5.82;;;24.30;78.60;;;;;;5051369;27;45412;-70
2022/08/19 05:15:12;;;;;;;6.88;6.18;;;24.40;78.70;;;;;;5046892;28;45305;-69
2022/08/19 05:22:31;;;;;;;6.65;5.85;;;24.40;78.70;;;;;;5046425;28;45492;-69
2022/08/19 05:23:14;;;;;;;6.90;5.75;;;24.30;78.70;;;;;;5046158;27;45371;-69
2022/08/19 05:25:41;;;;;;;5.85;5.25;;;24.30;78.70;;;;;;5043217;28;45569;-69
2022/08/19 05:28:08;;;;;;;6.03;5.30;;;24.40;78.80;;;;;;5052294;27;45642;-69
2022/08/19 05:30:35;;;;;;;7.22;5.90;;;24.30;78.80;;;;;;5054319;27;45470;-69
2022/08/19 05:33:02;;;;;;;6.15;5.50;;;24.40;78.90;;;;;;5029255;28;45348;-70
2022/08/19 05:35:30;;;;;;;6.47;5.50;;;24.30;78.90;;;;;;5042157;27;45604;-70
2022/08/19 05:37:57;;;;;;;6.72;5.75;;;24.40;78.90;;;;;;5036695;27;45337;-69
2022/08/19 05:40:24;;;;;;;5.90;5.30;;;24.40;78.90;;;;;;5036443;28;47545;-70
2022/08/19 05:42:51;;;;;;;6.38;5.15;;;24.40;79.00;;;;;;5035386;28;45390;-69
2022/08/19 05:45:18;;;;;;;6.75;5.38;;;24.40;79.00;;;;;;5041749;28;45266;-70
2022/08/19 05:47:45;;;;;;;14.15;6.88;;;24.40;79.20;;;;;;5041446;27;45303;-70
2022/08/19 05:50:12;;;;;;;10.50;6.03;;;24.40;79.70;;;;;;5040079;28;47365;-70
2022/08/19 05:52:41;;;;;;;12.77;7.57;;;24.40;79.60;;;;;;5035401;28;45298;-69
2022/08/19 05:55:08;;;;;;;7.70;5.57;;;24.40;79.60;;;;;;5021354;27;45269;-70
2022/08/19 05:57:35;;;;;;;10.00;6.00;;;24.40;79.60;;;;;;5032276;28;45522;-69
2022/08/19 06:00:04;;;;;;;7.32;5.75;;;24.40;79.60;;;;;;5037723;27;45405;-69
2022/08/19 06:02:31;;;;;;;8.52;5.55;;;24.30;79.50;;;;;;5030153;27;45395;-69
2022/08/19 06:04:58;;;;;;;10.52;5.22;;;24.30;79.50;;;;;;5045345;27;45485;-69
2022/08/19 06:07:25;;;;;;;11.23;5.60;;;24.30;79.50;;;;;;5041236;28;45313;-70
2022/08/19 06:09:53;;;;;;;5.15;4.65;;;24.40;79.60;;;;;;5040438;28;47174;-69
2022/08/19 06:12:20;;;;;;;7.80;5.25;;;24.30;79.50;;;;;;5039763;28;45362;-69
2022/08/19 06:14:46;;;;;;;6.30;5.45;;;24.30;79.50;;;;;;5034426;28;45236;-70
2022/08/19 06:17:13;;;;;;;8.35;4.85;;;24.30;79.60;;;;;;5038893;28;45660;-69
2022/08/19 06:19:41;;;;;;;9.00;5.88;;;24.30;79.60;;;;;;5035423;28;47515;-69
2022/08/19 06:22:09;;;;;;;7.07;6.03;;;24.30;79.60;;;;;;5029574;27;45358;-69
2022/08/19 06:24:36;;;;;;;6.07;5.20;;;24.30;79.70;;;;;;5036718;27;45420;-69
2022/08/19 06:27:06;;;;;;;6.15;5.55;;;24.30;79.70;;;;;;5040537;28;45392;-70
2022/08/19 06:29:33;;;;;;;7.60;5.75;;;24.30;79.70;;;;;;5041011;28;45420;-69
2022/08/19 06:32:02;;;;;;;8.13;6.18;;;24.30;79.70;;;;;;5029510;28;45517;-70
2022/08/19 06:34:31;;;;;;;7.20;6.50;;;24.30;79.80;;;;;;5021560;28;45281;-69
2022/08/19 06:37:01;;;;;;;7.60;6.13;;;24.30;79.80;;;;;;5026477;28;45477;-69
2022/08/19 06:39:30;;;;;;;9.90;6.82;;;24.30;79.70;;;;;;5036199;28;45481;-69
2022/08/19 06:42:02;;;;;;;9.68;6.40;;;24.30;79.80;;;;;;5042258;28;45343;-69
2022/08/19 06:44:36;;;;;;;7.88;5.95;;;24.30;79.80;;;;;;5041824;27;45222;-69
2022/08/19 06:47:04;;;;;;;7.60;6.35;;;24.30;79.90;;;;;;5044084;27;45570;-69
2022/08/19 06:52:53;;;;;;;13.35;6.70;;;24.30;79.90;;;;;;5035625;28;45341;-70
2022/08/19 06:55:20;;;;;;;7.82;5.95;;;24.30;79.90;;;;;;5038996;27;45435;-69
2022/08/19 06:57:47;;;;;;;12.30;7.80;;;24.30;80.00;;;;;;5026094;28;45596;-70
2022/08/19 07:00:16;;;;;;;11.57;7.72;;;24.30;80.20;;;;;;5038725;27;46250;-69
2022/08/19 07:02:43;;;;;;;12.75;8.68;;;24.30;80.30;;;;;;5057959;27;45452;-69
2022/08/19 07:05:10;;;;;;;13.15;9.02;;;24.30;80.70;;;;;;5047321;27;45656;-69
2022/08/19 07:07:37;;;;;;;14.88;9.25;;;24.30;80.80;;;;;;5043273;28;45418;-70
2022/08/19 07:10:05;;;;;;;15.30;10.07;;;24.40;80.90;;;;;;5046710;28;46391;-70
2022/08/19 07:12:34;;;;;;;15.57;11.30;;;24.40;80.70;;;;;;5026365;28;45479;-69
2022/08/19 07:15:01;;;;;;;15.02;11.60;;;24.40;80.60;;;;;;5069812;27;45342;-69
2022/08/19 07:17:29;;;;;;;20.13;10.82;;;24.40;80.60;;;;;;5042378;27;45325;-69
2022/08/19 07:19:56;;;;;;;16.55;11.45;;;24.40;80.50;;;;;;5039082;28;47091;-69
2022/08/19 07:22:23;;;;;;;16.85;11.45;;;24.40;80.50;;;;;;5038135;27;45518;-70
2022/08/19 07:24:50;;;;;;;15.25;11.40;;;24.40;80.50;;;;;;5037382;27;45307;-71
2022/08/19 07:27:18;;;;;;;15.85;12.27;;;24.40;80.50;;;;;;5027816;27;45463;-70
2022/08/19 07:29:45;;;;;;;15.60;11.95;;;24.40;80.50;;;;;;5030300;27;46797;-70
2022/08/19 07:32:12;;;;;;;16.77;13.65;;;24.50;80.70;;;;;;5038707;27;46246;-70
2022/08/19 07:34:40;;;;;;;21.60;15.10;;;24.50;81.30;;;;;;5038628;28;45390;-70
2022/08/19 07:37:07;;;;;;;25.40;16.35;;;24.50;81.50;;;;;;5042706;28;45344;-68
2022/08/19 07:39:36;;;;;;;19.95;14.88;;;24.50;81.60;;;;;;5041757;27;47638;-68
2022/08/19 07:42:06;;;;;;;20.50;15.00;;;24.50;81.50;;;;;;5033215;28;45405;-70
2022/08/19 07:44:34;;;;;;;21.02;14.20;;;24.50;81.40;;;;;;5032805;28;45363;-71
2022/08/19 07:47:01;;;;;;;22.10;13.00;;;24.50;81.50;;;;;;5037786;27;45282;-68
2022/08/19 07:49:29;;;;;;;19.40;14.02;;;24.50;81.50;;;;;;5027116;28;46090;-68
2022/08/19 07:52:01;;;;;;;19.70;13.05;;;24.50;81.40;;;;;;5036608;28;45390;-68
2022/08/19 07:54:31;;;;;;;17.60;12.50;;;24.50;81.40;;;;;;5039582;28;45343;-69
2022/08/19 07:56:58;;;;;;;17.95;12.70;;;24.50;81.40;;;;;;5030488;28;45473;-71
2022/08/19 07:59:25;;;;;;;18.30;12.20;;;24.50;81.30;;;;;;5032591;28;47506;-70
2022/08/19 08:01:53;;;;;;;18.48;12.48;;;24.50;81.30;;;;;;5035379;28;45449;-69
2022/08/19 08:09:52;;;;;;;15.93;10.95;;;24.50;81.00;;;;;;5048354;27;45415;-69
2022/08/19 08:12:24;;;;;;;17.60;11.70;;;24.50;80.80;;;;;;5049134;27;45695;-69
2022/08/19 08:14:52;;;;;;;17.17;11.43;;;24.50;80.60;;;;;;5039002;28;45473;-69
2022/08/19 08:17:21;;;;;;;15.85;11.07;;;24.50;80.50;;;;;;5073054;27;45562;-69
2022/08/19 08:19:50;;;;;;;14.75;9.80;;;24.50;80.50;;;;;;5066651;27;47765;-69
2022/08/19 08:25:05;;;;;;;14.40;9.65;;;24.50;80.50;;;;;;5049011;28;45767;-70
2022/08/19 08:27:31;;;;;;;15.50;10.75;;;24.50;80.30;;;;;;5032238;28;45474;-70
2022/08/19 08:29:58;;;;;;;13.15;9.40;;;24.50;80.20;;;;;;5037760;27;45427;-69
2022/08/19 08:32:25;;;;;;;12.95;9.40;;;24.60;80.30;;;;;;5038045;27;45468;-69
2022/08/19 08:34:54;;;;;;;15.48;9.13;;;24.50;80.10;;;;;;5041833;28;45317;-69
2022/08/19 08:37:22;;;;;;;14.60;9.40;;;24.60;80.10;;;;;;5046818;27;45283;-70
2022/08/19 08:39:49;;;;;;;10.18;7.95;;;24.50;79.90;;;;;;5053180;27;48255;-69
2022/08/19 08:42:25;;;;;;;11.95;8.55;;;24.50;79.80;;;;;;5065133;27;45426;-69
2022/08/19 08:44:58;;;;;;;12.73;8.32;;;24.50;79.60;;;;;;5036123;28;45474;-69
2022/08/19 08:47:27;;;;;;;12.15;8.30;;;24.60;79.60;;;;;;5034008;27;45404;-70
2022/08/19 08:49:59;;;;;;;11.40;8.40;;;24.60;79.40;;;;;;5033066;28;47105;-69
2022/08/19 08:52:33;;;;;;;11.73;7.50;;;24.60;79.60;;;;;;5046130;28;45392;-69
2022/08/19 08:55:05;;;;;;;13.25;9.25;;;24.60;79.50;;;;;;5053143;28;45362;-70
2022/08/19 08:57:38;;;;;;;12.38;8.35;;;24.60;79.40;;;;;;5044086;28;45549;-70
2022/08/19 09:00:08;;;;;;;10.52;7.97;;;24.60;79.30;;;;;;5049251;28;47398;-70
2022/08/19 09:02:35;;;;;;;11.30;7.57;;;24.60;78.90;;;;;;5035654;27;45696;-69
2022/08/19 09:05:02;;;;;;;14.25;7.75;;;24.60;78.90;;;;;;5076851;27;45410;-69
2022/08/19 09:07:48;;;;;;;10.13;7.75;;;24.70;78.90;;;;;;5033093;28;45450;-69
2022/08/19 09:10:23;;;;;;;12.05;7.97;;;24.60;78.50;;;;;;5058892;27;45420;-70
2022/08/19 09:13:04;;;;;;;12.18;7.25;;;24.60;78.40;;;;;;5035132;27;45430;-70
2022/08/19 09:15:35;;;;;;;9.93;6.75;;;24.70;78.70;;;;;;5039211;28;45387;-70
2022/08/19 09:18:03;;;;;;;9.63;6.88;;;24.70;78.60;;;;;;5060856;27;45760;-70
2022/08/19 09:20:30;;;;;;;9.18;6.18;;;24.70;78.60;;;;;;5035157;28;47362;-69
2022/08/19 09:22:59;;;;;;;7.10;5.55;;;24.70;78.30;;;;;;5037401;28;45297;-69
2022/08/19 09:25:27;;;;;;;7.88;5.47;;;24.70;77.80;;;;;;5042661;28;45285;-69
2022/08/19 09:27:56;;;;;;;9.40;5.65;;;24.70;77.90;;;;;;5038354;27;45445;-69
2022/08/19 09:30:25;;;;;;;6.65;5.60;;;24.70;77.90;;;;;;5068338;27;45469;-70
2022/08/19 09:32:53;;;;;;;7.82;5.85;;;24.70;77.80;;;;;;5047400;27;45520;-70
2022/08/19 09:35:22;;;;;;;8.40;5.57;;;24.70;77.70;;;;;;5048634;27;45473;-70
2022/08/19 09:37:50;;;;;;;8.15;5.78;;;24.70;77.80;;;;;;5056109;27;45567;-69
2022/08/19 09:40:19;;;;;;;7.80;5.13;;;24.70;77.80;;;;;;5072801;27;47464;-69
2022/08/19 09:42:47;;;;;;;7.40;5.20;;;24.70;77.80;;;;;;5037219;28;45732;-70
2022/08/19 09:45:16;;;;;;;7.47;5.53;;;24.70;77.70;;;;;;5039047;28;45587;-69
2022/08/19 09:47:42;;;;;;;6.40;4.85;;;24.70;77.70;;;;;;5058926;27;45410;-69
2022/08/19 09:50:11;;;;;;;7.13;4.85;;;24.70;77.60;;;;;;5049442;27;46595;-69
2022/08/19 09:52:39;;;;;;;7.57;5.28;;;24.70;77.30;;;;;;5033094;28;45431;-69
2022/08/19 09:55:07;;;;;;;6.57;4.60;;;24.70;77.10;;;;;;5071942;27;45440;-70
2022/08/19 09:57:36;;;;;;;6.13;4.78;;;24.70;77.10;;;;;;5071373;27;45457;-69
2022/08/19 10:00:05;;;;;;;7.90;5.20;;;24.70;77.10;;;;;;5031880;28;46082;-69
2022/08/19 10:02:32;;;;;;;8.10;5.03;;;24.70;77.10;;;;;;5030759;28;45416;-69
2022/08/19 10:07:43;;;;;;;8.15;5.35;;;24.60;77.30;;;;;;5035072;28;45442;-70
2022/08/19 10:10:11;;;;;;;6.57;4.90;;;24.60;77.40;;;;;;5043116;27;45487;-70
2022/08/19 10:12:39;;;;;;;6.03;4.57;;;24.60;77.40;;;;;;5033852;27;45338;-70
2022/08/19 10:15:07;;;;;;;8.13;4.88;;;24.60;77.50;;;;;;5076078;27;45372;-69
2022/08/19 10:17:35;;;;;;;6.97;5.25;;;24.60;77.40;;;;;;5049488;27;45217;-69
2022/08/19 10:20:02;;;;;;;6.93;5.13;;;24.60;77.40;;;;;;5028326;27;45634;-69
2022/08/19 10:22:29;;;;;;;5.82;4.65;;;24.60;77.40;;;;;;5035334;28;45351;-70
2022/08/19 10:24:56;;;;;;;8.38;5.20;;;24.60;77.60;;;;;;5030679;28;45355;-70
2022/08/19 10:27:23;;;;;;;5.32;4.60;;;24.60;77.60;;;;;;5039252;27;45371;-69
2022/08/19 10:29:51;;;;;;;6.03;4.65;;;24.60;77.50;;;;;;5034001;28;45320;-69
2022/08/19 10:32:18;;;;;;;7.38;4.85;;;24.60;77.50;;;;;;5034776;28;46302;-69
2022/08/19 10:34:46;;;;;;;5.75;4.38;;;24.60;77.40;;;;;;5041382;27;45541;-69
2022/08/19 10:37:13;;;;;;;7.45;4.72;;;24.60;77.40;;;;;;5046301;27;45589;-69
2022/08/19 10:39:40;;;;;;;5.82;4.18;;;24.60;77.50;;;;;;5044195;28;47254;-70
2022/08/19 10:42:10;;;;;;;6.32;4.57;;;24.60;77.50;;;;;;5074020;27;45280;-70
2022/08/19 10:44:37;;;;;;;11.43;4.60;;;24.60;77.70;;;;;;5038345;27;45488;-69
2022/08/19 10:47:06;;;;;;;5.00;4.03;;;24.70;79.40;;;;;;5043069;28;45317;-67
2022/08/19 10:52:32;;;;;;;8.02;4.45;;;24.70;80.50;;;;;;5074516;27;46441;-68
2022/08/19 10:52:33;;;;;;;5.53;4.28;;;24.80;80.20;;;;;;5029889;27;45468;-68
2022/08/19 10:57:44;;;;;;;6.78;4.35;;;25.10;79.50;;;;;;5021265;28;45328;-68
2022/08/19 11:00:13;;;;;;;4.88;3.50;;;25.20;79.40;;;;;;5066496;27;45348;-68
2022/08/19 11:02:42;;;;;;;5.50;4.05;;;25.30;79.10;;;;;;5055398;27;45414;-68
2022/08/19 11:05:11;;;;;;;6.72;4.20;;;25.50;79.00;;;;;;5048283;27;45429;-69
2022/08/19 11:07:39;;;;;;;5.00;3.58;;;25.60;78.70;;;;;;5035214;27;45637;-68
2022/08/19 11:10:07;;;;;;;5.30;3.80;;;25.70;78.70;;;;;;5045707;27;46562;-68
2022/08/19 11:12:34;;;;;;;4.35;3.75;;;25.70;78.50;;;;;;5036413;28;45454;-68
2022/08/19 11:15:01;;;;;;;6.20;4.00;;;25.90;79.00;;;;;;5039690;28;45531;-68
2022/08/19 11:17:29;;;;;;;4.75;3.60;;;26.00;78.70;;;;;;5034845;27;45511;-69
2022/08/19 11:19:57;;;;;;;5.90;4.15;;;26.10;77.70;;;;;;5034635;28;47667;-69
2022/08/19 11:22:24;;;;;;;6.32;4.35;;;26.20;77.40;;;;;;5045050;28;45318;-70
2022/08/19 11:24:51;;;;;;;16.60;5.28;;;26.20;77.40;;;;;;5030072;28;45379;-68
2022/08/19 11:27:29;;;;;;;11.30;4.88;;;26.30;77.70;;;;;;5181112;27;45445;-68
2022/08/19 11:29:56;;;;;;;10.45;4.47;;;26.50;77.50;;;;;;5152945;27;45293;-68
2022/08/19 11:32:23;;;;;;;14.18;4.25;;;26.50;77.30;;;;;;5167448;27;45374;-68
2022/08/19 11:34:49;;;;;;;10.80;4.50;;;26.60;77.80;;;;;;5172840;27;45433;-69
2022/08/19 11:37:16;;;;;;;10.52;4.30;;;26.70;78.10;;;;;;5167914;27;45318;-68
2022/08/19 11:39:43;;;;;;;7.75;4.15;;;26.70;77.80;;;;;;5173573;27;45293;-68
2022/08/19 11:44:56;;;;;;;13.23;4.05;;;26.70;77.10;;;;;;5166289;27;45597;-68
2022/08/19 11:47:23;;;;;;;8.88;4.25;;;26.70;76.90;;;;;;5173856;27;46065;-68
2022/08/19 11:49:49;;;;;;;7.82;4.18;;;26.60;76.80;;;;;;5174241;27;45336;-68
2022/08/19 11:52:16;;;;;;;10.85;4.43;;;26.60;76.70;;;;;;5165471;27;45324;-68
2022/08/19 11:54:43;;;;;;;8.00;4.47;;;26.50;76.70;;;;;;5164191;27;45322;-68
2022/08/19 11:57:10;;;;;;;10.38;4.32;;;26.50;76.70;;;;;;5178264;27;45318;-68
2022/08/19 11:59:37;;;;;;;8.35;4.18;;;26.30;76.70;;;;;;5168203;27;45401;-69
2022/08/19 12:02:05;;;;;;;6.78;3.95;;;26.10;76.50;;;;;;5176924;27;45520;-68
2022/08/19 12:04:31;;;;;;;8.32;4.00;;;25.90;76.80;;;;;;5165122;27;45422;-68
2022/08/19 12:06:58;;;;;;;7.50;3.60;;;25.80;77.10;;;;;;5178283;27;47490;-68
2022/08/19 12:09:25;;;;;;;8.43;3.97;;;25.70;77.30;;;;;;5177221;27;45354;-68
2022/08/19 12:11:52;;;;;;;5.95;3.97;;;25.70;77.20;;;;;;5173693;27;45283;-68
2022/08/19 12:14:19;;;;;;;6.00;3.67;;;25.60;77.40;;;;;;5173235;27;45548;-68
2022/08/19 12:16:46;;;;;;;6.28;3.92;;;25.60;77.20;;;;;;5168990;27;46351;-69
2022/08/19 12:19:15;;;;;;;7.03;3.88;;;25.50;77.00;;;;;;5169757;27;46317;-68
2022/08/19 12:21:42;;;;;;;5.90;3.58;;;25.50;77.00;;;;;;5163745;27;45388;-68
2022/08/19 12:24:09;;;;;;;6.93;3.90;;;25.50;77.00;;;;;;5171596;27;45420;-68
2022/08/19 12:26:36;;;;;;;6.03;3.70;;;25.40;77.20;;;;;;5172696;27;46831;-68
2022/08/19 12:29:03;;;;;;;7.43;3.92;;;25.40;77.10;;;;;;5167248;27;45406;-68
2022/08/19 12:31:31;;;;;;;4.88;3.22;;;25.30;77.10;;;;;;5173578;27;45368;-68
2022/08/19 12:33:58;;;;;;;5.82;3.47;;;25.30;77.10;;;;;;5169556;27;45308;-68
2022/08/19 12:36:26;;;;;;;6.20;3.38;;;25.30;77.20;;;;;;5163538;27;47443;-68
2022/08/19 12:38:53;;;;;;;4.65;2.95;;;25.30;77.00;;;;;;5155902;27;45325;-67
2022/08/19 12:41:22;;;;;;;5.35;3.50;;;25.30;77.00;;;;;;5147350;27;45307;-68
2022/08/19 12:43:49;;;;;;;4.93;3.17;;;25.30;77.00;;;;;;5158047;27;45598;-68
2022/08/19 12:46:16;;;;;;;5.85;3.70;;;25.30;76.80;;;;;;5154001;27;46408;-68
2022/08/19 12:48:44;;;;;;;5.18;3.35;;;25.30;76.80;;;;;;5148950;27;46453;-69
2022/08/19 12:51:14;;;;;;;4.28;2.78;;;25.30;76.90;;;;;;5145849;27;45207;-68
2022/08/19 12:53:43;;;;;;;3.95;2.70;;;25.30;76.50;;;;;;5147606;27;45353;-68
2022/08/19 12:56:14;;;;;;;4.68;2.92;;;25.20;76.30;;;;;;5144102;27;46554;-68
2022/08/19 12:58:41;;;;;;;6.20;3.42;;;25.20;76.50;;;;;;5154676;27;45420;-68
2022/08/19 13:01:10;;;;;;;6.90;3.80;;;25.20;76.30;;;;;;5148045;27;45657;-68
2022/08/19 13:03:36;;;;;;;5.47;3.17;;;25.20;76.40;;;;;;5150948;27;45667;-68
2022/08/19 13:06:03;;;;;;;4.40;3.10;;;25.30;76.40;;;;;;5158046;27;46387;-69
2022/08/19 13:08:30;;;;;;;6.00;3.22;;;25.30;77.40;;;;;;5152344;27;45436;-68
2022/08/19 13:10:59;;;;;;;6.35;3.10;;;25.30;76.30;;;;;;5153003;27;45336;-68
2022/08/19 13:13:26;;;;;;;4.45;2.97;;;25.20;76.50;;;;;;5145409;27;45216;-68